Soleil Weather Down

Nearby METAR Reports

 

KCNI - Canton/Cherokee, Georgia, USA
Distance from station: ENE 6mi, 10km
Updated: Thu, 26-Apr-2018 8:15pm EDT
Overcast
Overcast
 Wind from calm
Wind: Calm
Temperature: 59°F , 15°C
Dew Point: 55°F , 13°C
Humidity: 88%
Barometer: 29.83 inHg , 1010.2 hPa
Clouds: Overcast
Visibility: 7 miles , 11 km
Cloud details: Mostly cloudy 2200 ft
Overcast 2700 ft
2018/04/27 00:15 KCNI 270015Z AUTO 00000KT 7SM BKN022 OVC027 15/13 A2983 RMK AO2
KRYY - Marietta Mccolum, Georgia, USA
Distance from station: SSW 18mi, 29km
Updated: Thu, 26-Apr-2018 7:48pm EDT
Mostly cloudy
Mostly cloudy
 Wind from S
Wind: S 3 mph , 6 km/h
Temperature: 57°F , 14°C
Dew Point: 54°F , 12°C
Humidity: 88%
Barometer: 29.82 inHg , 1009.8 hPa
Clouds: Mostly cloudy
Visibility: 10 miles , 16 km
Cloud details: Mostly cloudy 2300 ft
Mostly cloudy 2900 ft
2018/04/26 23:48 KRYY 262348Z 19003KT 10SM BKN023 BKN029 14/12 A2982 RMK AO2 LTG DSNT N SLP821 60011 T01440122 10167 20128 51004
KVPC - Cartersville, Georgia, USA
Distance from station: WSW 22mi, 35km
Updated: Thu, 26-Apr-2018 8:19pm EDT
Mostly cloudy
Mostly cloudy
 Wind from calm
Wind: Calm
Temperature: 57°F , 14°C
Dew Point: 57°F , 14°C
Humidity: 100%
Barometer: 29.83 inHg , 1010.2 hPa
Clouds: Mostly cloudy
Visibility: 9 miles , 14 km
Cloud details: Mostly cloudy 1700 ft
Mostly cloudy 2300 ft
Mostly cloudy 3700 ft
2018/04/27 00:19 KVPC 270019Z AUTO 00000KT 9SM BKN017 BKN023 BKN037 14/14 A2983 RMK AO2 LTG DSNT NE RAE02 P0000 T01390139
 
KMGE - Dobbins Afb/Mari, Georgia, USA
Distance from station: S 24mi, 39km
Updated: Thu, 26-Apr-2018 8:01pm EDT
Mostly cloudy
Mostly cloudy
 Wind from S
Wind: S 3 mph , 6 km/h
Temperature: 59°F , 15°C
Dew Point: 54°F , 12°C
Humidity: 82%
Barometer: 29.81 inHg , 1009.5 hPa
Clouds: Mostly cloudy
Visibility: 10 miles , 16 km
Cloud details: Partly cloudy 1700 ft
Mostly cloudy 2800 ft
Mostly cloudy 5000 ft
2018/04/27 00:01 KMGE 270001Z 18003KT 10SM SCT017 BKN028 BKN050 15/12 A2981 RMK AO2A $
KPDK - Peachtree/Dekalb, Georgia, USA
Distance from station: SSE 29mi, 47km
Updated: Thu, 26-Apr-2018 8:12pm EDT
Overcast
Overcast
 Wind from S
Wind: S 3 mph , 6 km/h
Temperature: 57°F , 14°C
Dew Point: 54°F , 12°C
Humidity: 88%
Barometer: 29.82 inHg , 1009.8 hPa
Clouds: Overcast
Visibility: 10 miles , 16 km
Cloud details: Mostly cloudy 1500 ft
Overcast 3600 ft
2018/04/27 00:12 KPDK 270012Z 17003KT 10SM BKN015 OVC036 14/12 A2982 RMK AO2 T01440117
KFTY - Atlanta/Fulton, Georgia, USA
Distance from station: S 34mi, 54km
Updated: Thu, 26-Apr-2018 8:20pm EDT
Mostly cloudy
Mostly cloudy
 Wind from SSW
Wind: SSW 3 mph , 6 km/h
Temperature: 59°F , 15°C
Dew Point: 55°F , 13°C
Humidity: 88%
Barometer: 29.82 inHg , 1009.8 hPa
Clouds: Mostly cloudy
Visibility: 10 miles , 16 km
Cloud details: Few Clouds 1600 ft
Partly cloudy 7000 ft
Mostly cloudy 9000 ft
2018/04/27 00:20 KFTY 270020Z 21003KT 10SM FEW016 SCT070 BKN090 15/13 A2982 RMK AO2 T01500133 PNO
 
KPUJ - Atlanta/Paulding, Georgia, USA
Distance from station: SW 34mi, 55km
Updated: Thu, 26-Apr-2018 8:15pm EDT
Mostly cloudy
Mostly cloudy
 Wind from calm
Wind: Calm
Temperature: 61°F , 16°C
Dew Point: 61°F , 16°C
Humidity: 100%
Barometer: 29.82 inHg , 1009.8 hPa
Clouds: Mostly cloudy
Visibility: 10 miles , 16 km
Cloud details: Partly cloudy 1500 ft
Mostly cloudy 7000 ft
Mostly cloudy 8500 ft
2018/04/27 00:15 KPUJ 270015Z AUTO 00000KT 10SM SCT015 BKN070 BKN085 16/16 A2982 RMK AO2
KDNN - Dalton, Georgia, USA
Distance from station: NW 37mi, 59km
Updated: Thu, 26-Apr-2018 8:15pm EDT
Overcast
Overcast
 Wind from N
Wind: N 3 mph , 6 km/h
Temperature: 54°F , 12°C
Dew Point: 54°F , 12°C
Humidity: 100%
Barometer: 29.85 inHg , 1010.8 hPa
Clouds: Overcast
Visibility: 10 miles , 16 km
Cloud details: Mostly cloudy 2400 ft
Mostly cloudy 3200 ft
Overcast 6000 ft
2018/04/27 00:15 KDNN 270015Z AUTO 35003KT 10SM BKN024 BKN032 OVC060 12/12 A2985 RMK AO2 LTG DSNT SE
KLZU - Lawrenceville, Georgia, USA
Distance from station: ESE 37mi, 59km
Updated: Thu, 26-Apr-2018 7:56pm EDT
Mostly cloudy
Mostly cloudy
 Wind from SSE
Wind: SSE 8 mph , 13 km/h
Temperature: 63°F , 17°C
Dew Point: 54°F , 12°C
Humidity: 73%
Barometer: 29.81 inHg , 1009.5 hPa
Clouds: Mostly cloudy
Visibility: 10 miles , 16 km
Cloud details: Few Clouds 2000 ft
Mostly cloudy 3500 ft
2018/04/26 23:56 KLZU 262356Z 16007KT 10SM FEW020 BKN035 17/12 A2981 RMK AO2 SLP090 6//// T01700120 10178 20150 51332 $
 
KRMG - Rome, Georgia, USA
Distance from station: W 38mi, 61km
Updated: Thu, 26-Apr-2018 8:03pm EDT
Overcast
Overcast
 Wind from NNW
Wind: NNW 3 mph , 6 km/h
Temperature: 59°F , 15°C
Dew Point: 57°F , 14°C
Humidity: 94%
Barometer: 29.82 inHg , 1009.8 hPa
Clouds: Overcast
Visibility: 10 miles , 16 km
Cloud details: Partly cloudy 2100 ft
Mostly cloudy 3000 ft
Overcast 4800 ft
2018/04/27 00:03 KRMG 270003Z AUTO 33003KT 10SM SCT021 BKN030 OVC048 15/14 A2982 RMK AO2 T01500139
KGVL - Gainesville, Georgia, USA
Distance from station: E 39mi, 62km
Updated: Thu, 26-Apr-2018 7:53pm EDT
Overcast
Overcast
 Wind from SE
Wind: SE 6 mph , 9 km/h
Temperature: 57°F , 14°C
Dew Point: 55°F , 13°C
Humidity: 94%
Barometer: 29.82 inHg , 1009.8 hPa
Clouds: Overcast
Visibility: 10 miles , 16 km
Cloud details: Few Clouds 1900 ft
Mostly cloudy 3000 ft
Overcast 3600 ft
2018/04/26 23:53 KGVL 262353Z AUTO 13005KT 10SM FEW019 BKN030 OVC036 14/13 A2982 RMK AO2 LTG DSNT N SLP092 60016 T01440128 10150 20144 55002
KATL - Atlanta, Georgia, USA
Distance from station: S 44mi, 71km
Updated: Thu, 26-Apr-2018 8:06pm EDT
Mostly cloudy
Mostly cloudy
 Wind from calm
Wind: Calm
Temperature: 59°F , 15°C
Dew Point: 57°F , 14°C
Humidity: 94%
Barometer: 29.82 inHg , 1009.8 hPa
Clouds: Mostly cloudy
Visibility: 10 miles , 16 km
Cloud details: Partly cloudy 1200 ft
Mostly cloudy 2500 ft
Mostly cloudy 8000 ft
Mostly cloudy 20000 ft
2018/04/27 00:06 KATL 270006Z 00000KT 10SM SCT012 BKN025 BKN080 BKN200 15/14 A2982 RMK AO2 CB DSNT SE-S T01500139